AIRPORT ID: 1D7

DATE: 2021-12-09 ZULU TIME: 1.35 LOCAL TIME: 19.35


METAR K1D7 090135Z AUTO 13019G26KT 10SM M03/M09 A2951

ALTIMETER: A2951 Q999

DENSITY ALT: 700 Ft

WIND DIRECT: 140

WIND SPEED: 19 Gust

WIND CONDITIONS:

VISIBILTY: 10SM 9999M

TEMPERATURE: 27 F -3 C

DEW POINT: 15 F -9 C

HUMID: 61%

LCL: 1,000-3,000 feet

RADIO CHECK: 0

ADVISARIES: 0

GREETINGS: 0

CONVERSATIONS: 0